Terminal Aerodrome Forecast
Issued by NWS

Home | Current Version | Previous Version | Text Only | Print | Product List | Glossary On
Versions: 1 2 3 4 5 6 7 8 9 10 11 12 13 14 15 16 17 18 19 20 21 22
000
FTAK31 PANC 231418 AAA
TAFACD
TAF AMD
PACD 231418Z 2314/2412 14012KT P6SM SCT035 SCT090
      TEMPO 2314/2316 -RA BKN020
     FM231800 13012KT P6SM SCT035 BKN090
      TEMPO 2318/2322 BKN035
     FM232200 13012KT P6SM VCSH BKN035
     FM240400 13005KT P6SM SCT025 BKN035
     FM241100 VRB03KT P6SM SCT035 BKN080=

USA.gov is the U.S. government's official web portal to all federal, state and local government web resources and services.